Intervale, NH (03845)

1:19 AM EST on December 20, 2014 (GMT -0500)
Town Hall Road Weather | Change Station
CLOSE
Current Station
Personal Weather Station
Location: Intervale, NH
Elevation: 735 ft
Nearby Weather Stations

Elev 735 ft 44.11 °N, 71.14 °W | Updated 58 seconds ago

Partly Cloudy
Partly Cloudy
17.7 °F
Feels Like 18 °F
N
0.0
Wind Variable Wind from East
Gusts 0.0 mph

Today
High -- | Low -- °F
--% Chance of Precip.
Yesterday
High -- | Low -- °F
Precip. -- in
7:15 AM 4:08 PM
Waning Crescent, 4% visible
Pressure 30.18 in
Visibility 10.0 miles
Clouds Clear
Windchill 18 °F
Dew Point 16 °F
Humidity 93%
Rainfall 0.00 in
Snow Depth Not available.
UV 0 out of 12
Pollen .10 out of 12
Air Quality Not available.
Flu Activity Not available.
METAR KIZG 200554Z AUTO 00000KT 10SM CLR M09/M11 A3016 RMK AO2 SLP219 I1000 I6001 T10891106 11044 21100 51015

More Conditions Fewer Conditions

Pressure 30.18 in
Visibility 10.0 miles
Clouds Clear
Windchill 18 °F
Dew Point 16 °F
Humidity 93%
Rainfall 0.00 in
Snow Depth Not available.
UV 0 out of 12
Pollen .10 out of 12
Air Quality Not available.
Flu Activity Not available.
METAR KIZG 200554Z AUTO 00000KT 10SM CLR M09/M11 A3016 RMK AO2 SLP219 I1000 I6001 T10891106 11044 21100 51015

More Conditions Fewer Conditions

10-Day Weather Forecast

Almanac

Astronomy

Dec. 20, 2014 Rise Set
Actual Time
Civil Twilight
Nautical Twilight
Astronomical Twilight
Moon
Length of Visible Light
Length of Day
Tomorrow will be .
, % of the Moon is Illuminated

Today's Extremes

State Highs State Lows

Community

WunderPhotos

Upload Photos

1,779,144 photos uploaded!

WunderBlogs® & News

Nearby

Air Quality

  Air Quality AQ Index Pollutant
Not available.

Snow Depth

Station Depth Elevation

Earthquake Activity

City Distance Mag. Time & Date
Minimum magnitude displayed is 2.5.

Coastal Water Temperatures

Place Temperature

Nearby Weather Stations